Time;durP1;ratioP1;P1;durP2;ratioP2;P2;SDS_P1;SDS_P2;PMS_P1;PMS_P2;Temp;Humidity;BMP_temperature;BMP_pressure;BME280_temperature;BME280_humidity;BME280_pressure;Samples;Min_cycle;Max_cycle;Signal;HPM_P1;HPM_P2
2022/10/28 00:01:22;;;;;;;13.75;5.43;;;;;;;15.36;93.71;102032.13;5034203;28;20037;-75
2022/10/28 00:03:56;;;;;;;8.65;5.38;;;;;;;15.35;93.99;102035.94;5044608;28;20060;-75
2022/10/28 00:06:41;;;;;;;9.93;5.70;;;;;;;15.39;92.93;102034.28;5031480;28;20045;-75
2022/10/28 00:09:09;;;;;;;7.07;5.60;;;;;;;15.42;92.50;102041.19;5035044;28;20389;-75
2022/10/28 00:11:41;;;;;;;11.10;5.18;;;;;;;15.37;92.15;102042.03;5038276;28;20512;-76
2022/10/28 00:14:10;;;;;;;9.55;5.70;;;;;;;15.32;92.49;102037.31;5049715;28;20045;-75
2022/10/28 00:16:38;;;;;;;9.27;4.80;;;;;;;15.29;92.20;102040.66;5034595;28;20382;-76
2022/10/28 00:19:09;;;;;;;7.00;4.60;;;;;;;15.30;91.97;102036.78;5033710;28;20056;-76
2022/10/28 00:21:39;;;;;;;7.65;4.60;;;;;;;15.34;91.49;102034.28;5027027;28;20041;-76
2022/10/28 00:24:09;;;;;;;7.68;4.45;;;;;;;15.26;91.78;102030.16;5040867;28;20038;-75
2022/10/28 00:26:41;;;;;;;9.25;5.10;;;;;;;15.26;91.53;102035.69;5034102;28;20401;-76
2022/10/28 00:29:12;;;;;;;8.65;4.97;;;;;;;15.11;90.37;102041.22;5034031;28;20056;-76
2022/10/28 00:31:41;;;;;;;9.07;4.22;;;;;;;15.16;90.54;102039.25;5034414;28;20034;-76
2022/10/28 00:34:13;;;;;;;9.40;4.80;;;;;;;15.18;91.29;102030.72;5035428;28;20076;-76
2022/10/28 00:36:43;;;;;;;10.65;4.50;;;;;;;15.13;91.56;102027.97;5034236;28;20045;-76
2022/10/28 00:39:17;;;;;;;7.40;4.65;;;;;;;15.13;91.44;102031.56;5031014;28;20386;-76
2022/10/28 00:41:48;;;;;;;11.20;4.68;;;;;;;15.15;91.43;102034.84;5045942;28;20408;-76
2022/10/28 00:44:56;;;;;;;5.22;4.13;;;;;;;15.15;91.60;102025.78;5033521;28;20096;-76
2022/10/28 00:47:42;;;;;;;;;;;;;;;15.20;92.13;102024.94;5016922;28;20068;-75
2022/10/28 00:50:29;;;;;;;9.00;5.30;;;;;;;15.20;92.77;102023.00;5033593;28;19925;-75
2022/10/28 00:53:05;;;;;;;8.15;4.63;;;;;;;15.20;93.02;102019.44;5027327;28;20049;-76
2022/10/28 00:55:35;;;;;;;11.40;4.90;;;;;;;15.21;92.82;102019.16;5037416;28;20049;-76
2022/10/28 00:58:05;;;;;;;6.90;4.72;;;;;;;15.24;92.90;102009.50;5033690;28;20050;-76
2022/10/28 01:00:33;;;;;;;9.52;5.65;;;;;;;15.22;93.32;102012.53;5033696;28;20046;-76
2022/10/28 01:03:01;;;;;;;12.25;5.25;;;;;;;15.20;93.30;102011.97;5034710;28;20046;-76
2022/10/28 01:05:34;;;;;;;10.93;5.57;;;;;;;15.11;93.89;101995.16;5033237;28;20053;-76
2022/10/28 01:08:04;;;;;;;10.95;5.75;;;;;;;15.23;93.85;102005.91;5033821;28;20111;-76
2022/10/28 01:11:10;;;;;;;9.05;4.85;;;;;;;15.25;93.64;101998.19;5040365;28;20052;-76
2022/10/28 01:14:01;;;;;;;9.32;5.35;;;;;;;15.31;93.46;101985.22;4982148;28;20056;-76
2022/10/28 01:16:41;;;;;;;11.77;5.60;;;;;;;15.30;93.06;101989.91;5034017;28;20057;-76
2022/10/28 01:19:42;;;;;;;11.50;5.75;;;;;;;15.33;93.15;101977.50;5034767;28;20053;-76
2022/10/28 01:22:57;;;;;;;8.50;5.25;;;;;;;15.29;93.80;101973.63;5033435;28;20058;-76
2022/10/28 01:25:25;;;;;;;;;;;;;;;15.33;93.16;101977.50;5028817;28;20053;-76
2022/10/28 01:28:31;;;;;;;10.43;5.28;;;;;;;15.35;93.16;101972.50;5033490;28;19932;-76
2022/10/28 01:31:38;;;;;;;9.77;5.75;;;;;;;15.28;93.43;101970.06;4989747;28;20069;-75
2022/10/28 01:34:34;;;;;;;8.95;5.18;;;;;;;15.35;93.75;101958.72;5024628;28;20060;-76
2022/10/28 01:37:25;;;;;;;11.30;5.93;;;;;;;15.39;93.30;101964.53;5020782;28;20061;-76
2022/10/28 01:40:03;;;;;;;8.27;5.15;;;;;;;15.45;93.19;101961.47;5031765;28;20703;-76
2022/10/28 01:42:55;;;;;;;6.90;5.32;;;;;;;15.52;92.81;101969.47;5040649;28;20049;-76
2022/10/28 01:45:28;;;;;;;9.98;6.07;;;;;;;15.66;91.81;101963.34;5035992;28;20057;-76
2022/10/28 01:48:09;;;;;;;9.55;5.60;;;;;;;15.54;91.34;101969.19;5034562;28;20397;-75
2022/10/28 01:50:49;;;;;;;10.35;5.70;;;;;;;15.43;91.46;101969.19;5043453;28;20053;-76
2022/10/28 01:53:23;;;;;;;13.45;5.38;;;;;;;15.29;92.06;101974.47;5032408;28;20060;-76
2022/10/28 01:55:54;;;;;;;10.45;5.28;;;;;;;15.20;92.37;101978.88;5032801;28;20052;-76
2022/10/28 01:58:26;;;;;;;9.68;5.10;;;;;;;15.12;92.48;101983.03;5035663;28;20048;-75
2022/10/28 02:00:59;;;;;;;7.78;4.88;;;;;;;14.95;93.02;101982.50;5042767;28;20397;-75
2022/10/28 02:03:27;;;;;;;10.60;5.45;;;;;;;14.91;92.67;101982.22;5033314;28;20069;-75
2022/10/28 02:05:57;;;;;;;9.02;5.13;;;;;;;14.78;93.06;101989.91;5035529;28;20049;-75
2022/10/28 02:08:51;;;;;;;11.75;5.55;;;;;;;14.66;93.68;101992.06;5035306;28;20040;-75
2022/10/28 02:11:40;;;;;;;10.95;4.78;;;;;;;14.70;93.51;101998.69;5042904;28;20058;-75
2022/10/28 02:14:26;;;;;;;10.25;4.70;;;;;;;14.69;92.89;101990.69;5015181;28;20049;-75
2022/10/28 02:17:09;;;;;;;8.40;4.55;;;;;;;14.58;93.20;101992.59;5014776;28;20046;-75
2022/10/28 02:19:43;;;;;;;10.75;5.32;;;;;;;14.60;93.28;101995.91;5034081;28;20053;-75
2022/10/28 02:22:26;;;;;;;7.80;4.43;;;;;;;14.61;93.07;101983.78;5041121;28;20061;-75
2022/10/28 02:25:13;;;;;;;9.85;4.82;;;;;;;14.56;93.47;101983.78;5031982;28;20505;-75
2022/10/28 02:27:58;;;;;;;9.07;4.40;;;;;;;14.58;93.52;101989.84;5032102;28;20492;-75
2022/10/28 02:30:34;;;;;;;9.65;4.63;;;;;;;14.56;93.90;101998.38;5032580;28;20053;-75
2022/10/28 02:33:05;;;;;;;11.27;4.97;;;;;;;14.52;94.31;101992.59;5032467;28;20488;-75
2022/10/28 02:35:40;;;;;;;7.78;4.80;;;;;;;14.55;93.96;101999.47;5031109;28;20064;-75
2022/10/28 02:38:13;;;;;;;;;;;;;;;14.62;93.66;101997.28;5032199;28;20452;-75
2022/10/28 02:40:46;;;;;;;7.80;4.45;;;;;;;14.62;92.97;101993.72;5034692;28;19921;-75
2022/10/28 02:43:16;;;;;;;7.83;4.63;;;;;;;14.51;93.52;101996.44;5031345;28;20053;-75
2022/10/28 02:45:50;;;;;;;6.47;4.63;;;;;;;14.45;94.30;101994.78;5032024;28;20778;-75
2022/10/28 02:48:24;;;;;;;9.70;4.90;;;;;;;14.46;94.21;102001.09;5031745;28;20072;-75
2022/10/28 02:51:10;;;;;;;9.68;5.05;;;;;;;14.51;93.19;101999.19;5038044;28;20053;-75
2022/10/28 02:54:07;;;;;;;6.75;5.10;;;;;;;14.45;93.27;101992.03;5032176;28;20492;-75
2022/10/28 02:56:50;;;;;;;11.07;4.55;;;;;;;14.45;93.28;101997.53;5030458;28;20053;-75
2022/10/28 02:59:18;;;;;;;7.85;4.50;;;;;;;14.46;93.28;102003.84;5030360;28;20053;-75
2022/10/28 03:01:46;;;;;;;8.35;4.80;;;;;;;14.45;92.73;102008.56;5042438;28;20033;-75
2022/10/28 03:04:14;;;;;;;7.15;4.45;;;;;;;14.48;92.41;101998.91;5021603;28;20053;-75
2022/10/28 03:06:42;;;;;;;10.77;4.53;;;;;;;14.49;92.02;102004.16;5032014;28;20037;-75
2022/10/28 03:09:10;;;;;;;9.25;4.70;;;;;;;14.48;92.15;102001.69;5031813;28;20049;-75
2022/10/28 03:11:38;;;;;;;7.65;4.28;;;;;;;14.48;92.10;101999.72;5042534;28;21015;-75
2022/10/28 03:14:06;;;;;;;7.88;4.22;;;;;;;14.50;92.15;101999.47;5019312;28;20050;-75
2022/10/28 03:16:38;;;;;;;6.68;3.95;;;;;;;14.48;92.12;101999.72;5031423;28;20397;-75
2022/10/28 03:19:06;;;;;;;7.30;4.25;;;;;;;14.50;92.82;102000.31;5013738;28;20385;-75
2022/10/28 03:21:35;;;;;;;7.18;4.70;;;;;;;14.55;92.45;101987.63;5013629;28;20037;-75
2022/10/28 03:24:03;;;;;;;7.95;4.55;;;;;;;14.48;93.16;101985.16;5030552;28;20049;-75
2022/10/28 03:26:31;;;;;;;9.27;4.28;;;;;;;14.53;92.17;101993.44;5031357;28;20045;-75
2022/10/28 03:28:59;;;;;;;5.82;3.95;;;;;;;14.51;92.10;101993.69;5040995;28;20045;-75
2022/10/28 03:31:27;;;;;;;10.05;4.57;;;;;;;14.51;91.70;101990.09;5039915;28;20037;-75
2022/10/28 03:33:55;;;;;;;8.90;4.47;;;;;;;14.52;92.07;101987.06;4997750;28;20504;-75
2022/10/28 03:36:23;;;;;;;10.93;3.70;;;;;;;14.55;92.29;101990.38;5031281;28;20057;-75
2022/10/28 03:38:50;;;;;;;6.40;4.35;;;;;;;14.52;92.31;101987.06;5032161;28;20046;-75
2022/10/28 03:41:18;;;;;;;8.02;4.18;;;;;;;14.49;92.83;101976.63;5035254;28;20038;-75
2022/10/28 03:43:46;;;;;;;10.38;4.10;;;;;;;14.53;92.44;101979.66;5033677;28;20045;-75
2022/10/28 03:46:14;;;;;;;8.80;4.85;;;;;;;14.49;92.64;101971.13;5035775;28;20042;-75
2022/10/28 03:48:45;;;;;;;8.45;4.78;;;;;;;14.47;92.96;101976.03;5017373;28;20052;-75
2022/10/28 03:51:12;;;;;;;7.93;4.95;;;;;;;14.43;92.88;101966.69;5022813;28;20056;-75
2022/10/28 03:53:40;;;;;;;5.78;4.38;;;;;;;14.43;93.10;101968.63;5034841;28;20064;-75
2022/10/28 03:56:09;;;;;;;7.53;4.70;;;;;;;14.34;93.46;101968.31;5035550;28;20038;-75
2022/10/28 03:58:37;;;;;;;7.38;4.75;;;;;;;14.29;93.01;101962.78;5035066;28;20493;-75
2022/10/28 04:01:08;;;;;;;6.20;4.63;;;;;;;14.28;94.07;101973.00;5040838;28;20041;-75
2022/10/28 04:03:36;;;;;;;6.22;4.38;;;;;;;14.30;93.60;101973.53;5034360;28;20520;-75
2022/10/28 04:06:04;;;;;;;7.68;4.65;;;;;;;14.29;94.07;101974.66;5038067;28;20052;-75
2022/10/28 04:08:32;;;;;;;10.80;4.70;;;;;;;14.30;93.32;101976.28;5034796;28;20050;-75
2022/10/28 04:11:00;;;;;;;6.05;4.53;;;;;;;14.29;93.99;101982.91;5041646;28;20041;-75
2022/10/28 04:13:28;;;;;;;8.27;4.53;;;;;;;14.39;93.69;101984.84;5034676;28;20057;-76
2022/10/28 04:15:56;;;;;;;9.07;5.53;;;;;;;14.37;93.88;101973.25;5034035;28;20049;-75
2022/10/28 04:18:25;;;;;;;8.38;4.93;;;;;;;14.40;93.10;101992.00;5038469;28;20049;-75
2022/10/28 04:20:53;;;;;;;14.20;4.82;;;;;;;14.35;92.98;101983.72;5038738;28;20041;-75
2022/10/28 04:23:21;;;;;;;8.88;4.00;;;;;;;14.24;92.54;101988.38;5017312;28;20050;-75
2022/10/28 04:25:53;;;;;;;7.45;4.10;;;;;;;14.15;93.23;101993.59;5034996;28;20038;-75
2022/10/28 04:28:23;;;;;;;9.43;3.97;;;;;;;14.17;93.04;101982.31;5024335;28;20049;-75
2022/10/28 04:30:51;;;;;;;8.23;4.10;;;;;;;14.09;93.19;101978.97;5034587;28;20456;-75
2022/10/28 04:33:19;;;;;;;6.40;4.00;;;;;;;14.00;93.29;101979.75;5037456;28;20052;-75
2022/10/28 04:35:47;;;;;;;9.88;4.35;;;;;;;14.01;93.89;101986.91;5043632;28;20046;-75
2022/10/28 04:38:15;;;;;;;8.05;4.65;;;;;;;13.94;94.52;101985.22;5038832;28;20049;-74
2022/10/28 04:40:47;;;;;;;6.90;4.30;;;;;;;13.96;94.18;101974.81;5016371;28;20041;-75
2022/10/28 04:43:15;;;;;;;7.75;3.92;;;;;;;13.96;94.03;101977.56;5035097;28;20053;-75
2022/10/28 04:45:45;;;;;;;7.30;4.30;;;;;;;13.94;93.78;101967.91;5035245;28;20517;-74
2022/10/28 04:48:14;;;;;;;7.15;3.95;;;;;;;14.02;95.26;101963.81;5033821;28;20050;-77
2022/10/28 04:50:42;;;;;;;8.90;4.78;;;;;;;14.62;91.91;101963.41;4984432;28;20049;-75
2022/10/28 04:53:11;;;;;;;5.85;4.05;;;;;;;14.64;90.16;101973.06;5033684;28;20485;-75
2022/10/28 04:55:39;;;;;;;7.95;4.00;;;;;;;14.64;89.58;101973.06;5039702;28;20060;-76
2022/10/28 04:58:09;;;;;;;5.60;3.85;;;;;;;14.51;90.32;101974.41;5037725;28;20041;-75
2022/10/28 05:00:39;;;;;;;8.10;3.65;;;;;;;14.45;89.89;101975.50;5034350;28;20033;-75
2022/10/28 05:03:07;;;;;;;6.15;4.00;;;;;;;14.43;90.43;101972.19;5025951;28;20511;-76
2022/10/28 05:05:35;;;;;;;6.38;3.40;;;;;;;14.38;90.72;101973.00;5033233;28;20049;-76
2022/10/28 05:08:03;;;;;;;5.28;3.53;;;;;;;14.31;90.48;101963.34;5033710;28;20049;-76
2022/10/28 05:10:31;;;;;;;5.82;3.60;;;;;;;14.22;90.51;101965.78;5037003;28;20481;-75
2022/10/28 05:12:59;;;;;;;5.85;3.70;;;;;;;14.15;90.21;101959.72;5035965;28;20769;-75
2022/10/28 05:15:26;;;;;;;8.02;3.80;;;;;;;14.18;90.04;101970.19;5047036;28;20123;-76
2022/10/28 05:17:54;;;;;;;4.90;3.35;;;;;;;14.16;90.11;101969.63;5037035;28;20049;-76
2022/10/28 05:20:23;;;;;;;6.72;3.80;;;;;;;14.17;89.89;101972.13;5033101;28;20384;-76
2022/10/28 05:22:53;;;;;;;4.68;3.75;;;;;;;14.20;89.96;101977.09;5033604;28;20427;-76
2022/10/28 05:25:22;;;;;;;8.15;4.05;;;;;;;14.19;89.78;101972.69;5033995;28;20480;-76
2022/10/28 05:27:50;;;;;;;7.70;3.75;;;;;;;14.19;89.43;101972.69;5032350;28;20405;-75
2022/10/28 05:30:18;;;;;;;9.65;3.60;;;;;;;14.15;89.87;101963.31;5014199;28;20408;-75
2022/10/28 05:32:47;;;;;;;7.05;4.10;;;;;;;14.22;89.25;101963.88;5032428;28;20064;-77
2022/10/28 05:35:21;;;;;;;6.22;3.60;;;;;;;14.21;89.72;101964.97;5032966;28;20060;-75
2022/10/28 05:37:49;;;;;;;6.35;3.35;;;;;;;14.17;89.21;101952.84;5033586;28;20042;-75
2022/10/28 05:40:16;;;;;;;7.82;3.97;;;;;;;14.16;90.10;101964.97;5028784;28;20116;-75
2022/10/28 05:42:44;;;;;;;5.90;3.22;;;;;;;14.26;90.01;101974.34;5032789;28;20046;-76
2022/10/28 05:45:12;;;;;;;4.35;3.60;;;;;;;14.35;89.48;101975.47;5032414;28;20049;-74
2022/10/28 05:47:47;;;;;;;4.93;3.58;;;;;;;14.34;89.11;101979.31;5033047;28;20408;-74
2022/10/28 05:50:17;;;;;;;5.05;3.38;;;;;;;14.32;88.44;101982.34;5015773;28;20508;-74
2022/10/28 05:52:50;;;;;;;5.15;3.30;;;;;;;14.30;88.47;101975.44;5032704;28;20041;-74
2022/10/28 05:55:22;;;;;;;4.63;3.38;;;;;;;14.22;89.47;101976.81;5032269;28;20386;-74
2022/10/28 05:57:51;;;;;;;7.00;3.60;;;;;;;14.15;90.08;101974.31;5032557;28;20049;-74
2022/10/28 06:00:23;;;;;;;6.78;3.70;;;;;;;14.12;90.38;101980.34;5033352;28;20045;-74
2022/10/28 06:02:52;;;;;;;13.23;4.18;;;;;;;14.08;90.63;101976.50;5032253;28;20493;-74
2022/10/28 06:05:20;;;;;;;6.82;3.35;;;;;;;14.08;90.38;101977.31;5032565;28;20049;-74
2022/10/28 06:07:51;;;;;;;7.93;4.05;;;;;;;14.08;90.73;101974.56;5032490;28;20041;-74
2022/10/28 06:10:18;;;;;;;6.63;3.78;;;;;;;14.07;90.76;101978.41;5032896;28;20105;-74
2022/10/28 06:12:46;;;;;;;7.10;3.70;;;;;;;14.13;90.85;101972.94;5032626;28;20042;-74
2022/10/28 06:15:14;;;;;;;7.20;4.38;;;;;;;14.15;90.85;101982.56;5032244;28;20060;-74
2022/10/28 06:17:46;;;;;;;10.30;4.00;;;;;;;14.21;90.61;101987.00;5031897;28;20487;-74
2022/10/28 06:20:14;;;;;;;5.68;3.97;;;;;;;14.18;91.44;101987.53;5031797;28;20056;-74
2022/10/28 06:22:49;;;;;;;6.25;3.53;;;;;;;14.18;91.01;101986.72;5031935;28;20167;-74
2022/10/28 06:25:19;;;;;;;6.20;3.50;;;;;;;14.21;90.96;101994.41;5031624;28;20064;-74
2022/10/28 06:27:57;;;;;;;4.65;3.25;;;;;;;14.25;91.20;101992.78;5031500;28;20052;-74
2022/10/28 06:30:26;;;;;;;5.70;3.20;;;;;;;14.36;90.44;101994.47;5031548;28;20049;-74
2022/10/28 06:32:57;;;;;;;5.35;3.67;;;;;;;14.58;90.25;101992.59;5031871;28;20037;-74
2022/10/28 06:35:25;;;;;;;5.28;3.50;;;;;;;14.81;88.99;102005.06;5031631;28;20064;-74
2022/10/28 06:37:56;;;;;;;8.07;3.63;;;;;;;14.99;88.58;101997.34;5031205;28;20484;-74
2022/10/28 06:40:25;;;;;;;9.00;4.05;;;;;;;15.15;87.03;102006.47;5031804;28;20072;-74
2022/10/28 06:43:19;;;;;;;8.70;4.10;;;;;;;15.38;85.62;102007.81;5031796;28;20056;-73
2022/10/28 06:45:52;;;;;;;6.45;4.18;;;;;;;15.65;84.79;102005.84;5029993;28;20060;-74
2022/10/28 06:48:20;;;;;;;7.53;4.05;;;;;;;15.79;82.93;102006.09;5014885;28;20053;-74
2022/10/28 06:50:48;;;;;;;6.72;3.80;;;;;;;15.98;82.03;102009.06;5032190;28;20056;-74
2022/10/28 06:53:16;;;;;;;4.78;4.03;;;;;;;16.04;81.51;102010.72;5031375;28;20057;-74
2022/10/28 06:55:51;;;;;;;5.70;4.22;;;;;;;16.22;80.84;102009.25;5031918;28;20480;-74
2022/10/28 06:58:19;;;;;;;5.85;3.67;;;;;;;16.43;79.88;102016.63;5031739;28;20156;-74
2022/10/28 07:00:47;;;;;;;5.03;3.70;;;;;;;16.60;79.31;102019.84;5031122;28;20049;-74
2022/10/28 07:03:15;;;;;;;8.85;3.65;;;;;;;16.68;78.00;102009.28;5029698;28;20084;-74
2022/10/28 07:05:45;;;;;;;4.82;3.40;;;;;;;16.78;77.74;102017.50;5031185;28;20404;-74
2022/10/28 07:08:13;;;;;;;10.80;4.03;;;;;;;16.78;77.95;102021.09;5031078;28;20083;-74
2022/10/28 07:10:41;;;;;;;6.50;3.83;;;;;;;16.86;77.49;102021.63;5031180;28;20049;-74
2022/10/28 07:13:09;;;;;;;5.38;3.33;;;;;;;17.14;76.50;102022.78;5032027;28;20044;-74
2022/10/28 07:15:37;;;;;;;5.75;3.15;;;;;;;17.28;76.11;102038.72;5031800;28;20060;-74
2022/10/28 07:18:05;;;;;;;5.13;3.35;;;;;;;17.46;75.34;102046.28;5028807;28;20045;-74
2022/10/28 07:20:33;;;;;;;6.95;3.20;;;;;;;17.48;75.32;102042.41;5031022;28;20045;-74
2022/10/28 07:23:01;;;;;;;4.22;3.55;;;;;;;17.56;75.73;102044.56;5031377;28;20049;-74
2022/10/28 07:25:32;;;;;;;5.47;3.60;;;;;;;17.72;75.25;102048.81;5031584;28;20037;-73
2022/10/28 07:28:00;;;;;;;9.00;3.95;;;;;;;17.79;74.66;102053.19;5030634;28;20058;-74
2022/10/28 07:30:28;;;;;;;6.82;4.03;;;;;;;18.00;74.44;102046.28;5030949;28;20065;-74
2022/10/28 07:32:59;;;;;;;14.43;6.97;;;;;;;18.24;73.35;102045.47;5031156;28;20053;-74
2022/10/28 07:35:27;;;;;;;13.50;6.70;;;;;;;18.35;72.28;102048.97;5030524;28;20057;-74
2022/10/28 07:37:56;;;;;;;12.40;7.70;;;;;;;18.38;71.92;102044.78;5013874;28;20511;-74
2022/10/28 07:40:25;;;;;;;11.73;7.95;;;;;;;18.65;71.96;102043.28;5031654;28;20046;-75
2022/10/28 07:42:53;;;;;;;16.45;8.35;;;;;;;18.91;70.51;102045.66;5030575;28;20045;-75
2022/10/28 07:45:22;;;;;;;9.77;6.72;;;;;;;19.14;69.86;102048.66;5030759;28;20049;-74
2022/10/28 07:47:50;;;;;;;9.02;6.07;;;;;;;19.09;69.34;102040.41;5030885;28;20060;-74
2022/10/28 07:50:18;;;;;;;11.25;8.77;;;;;;;19.39;69.30;102041.00;5031401;28;20068;-74
2022/10/28 07:52:46;;;;;;;9.63;5.90;;;;;;;19.50;67.87;102050.00;5031100;28;20500;-74
2022/10/28 07:55:14;;;;;;;5.93;4.60;;;;;;;19.65;67.90;102057.22;5031491;28;20050;-75
2022/10/28 07:57:43;;;;;;;7.53;4.35;;;;;;;19.74;66.68;102058.16;5013421;28;20042;-75
2022/10/28 08:00:11;;;;;;;9.60;5.28;;;;;;;19.96;65.97;102065.00;5013694;28;20057;-74
2022/10/28 08:02:39;;;;;;;11.95;6.03;;;;;;;20.31;65.38;102054.28;5030820;28;20057;-74
2022/10/28 08:05:07;;;;;;;13.40;9.93;;;;;;;20.65;65.22;102052.16;5030640;28;20046;-75
2022/10/28 08:07:35;;;;;;;14.90;9.23;;;;;;;20.59;64.13;102048.66;5030841;28;20155;-75
2022/10/28 08:10:06;;;;;;;9.60;5.45;;;;;;;20.59;65.27;102054.25;5031408;28;20037;-75
2022/10/28 08:12:34;;;;;;;7.82;4.18;;;;;;;20.80;64.03;102053.75;5030584;28;20053;-75
2022/10/28 08:15:02;;;;;;;9.55;3.90;;;;;;;20.91;63.30;102054.34;5030357;28;20500;-75
2022/10/28 08:17:30;;;;;;;5.40;3.47;;;;;;;21.07;63.42;102060.38;5030665;28;20492;-75
2022/10/28 08:19:58;;;;;;;4.25;3.63;;;;;;;21.18;63.25;102058.16;4997457;28;20049;-75
2022/10/28 08:22:26;;;;;;;6.75;4.43;;;;;;;21.19;63.33;102057.03;5030965;28;20053;-75
2022/10/28 08:24:54;;;;;;;5.00;3.17;;;;;;;21.32;62.03;102056.13;5029818;28;20050;-75
2022/10/28 08:27:22;;;;;;;5.15;3.38;;;;;;;21.18;61.79;102049.81;5031222;28;20037;-75
2022/10/28 08:29:52;;;;;;;6.18;3.45;;;;;;;21.29;60.82;102051.19;5033934;28;20053;-75
2022/10/28 08:32:20;;;;;;;5.25;3.45;;;;;;;21.34;60.23;102056.63;5034068;28;20053;-75
2022/10/28 08:34:50;;;;;;;8.70;3.80;;;;;;;21.67;58.99;102058.28;5033719;28;20136;-75
2022/10/28 08:37:18;;;;;;;10.32;4.57;;;;;;;21.89;58.66;102056.59;5034266;28;20049;-76
2022/10/28 08:39:48;;;;;;;8.85;4.32;;;;;;;21.78;58.51;102049.66;5033840;28;20051;-76
2022/10/28 08:42:16;;;;;;;15.32;8.30;;;;;;;21.99;59.03;102052.69;5033953;28;20053;-75
2022/10/28 08:44:52;;;;;;;5.90;3.78;;;;;;;22.16;57.39;102054.72;5033613;28;20054;-75
2022/10/28 08:47:23;;;;;;;6.05;4.22;;;;;;;22.43;56.92;102047.22;5033944;28;20072;-75
2022/10/28 08:49:57;;;;;;;7.65;3.58;;;;;;;22.36;56.93;102052.47;5033678;28;20053;-75
2022/10/28 08:52:59;;;;;;;9.05;4.47;;;;;;;22.52;56.56;102059.25;5033548;28;20049;-75
2022/10/28 08:55:35;;;;;;;9.57;4.32;;;;;;;22.62;56.21;102051.72;5033832;28;20050;-75
2022/10/28 08:58:24;;;;;;;13.68;4.78;;;;;;;22.78;56.58;102050.06;5033553;28;20058;-75
2022/10/28 09:00:54;;;;;;;7.50;5.15;;;;;;;22.90;55.80;102049.41;5033612;28;20046;-75
2022/10/28 09:03:38;;;;;;;10.23;4.35;;;;;;;23.08;55.17;102047.41;5034143;28;20057;-76
2022/10/28 09:06:09;;;;;;;7.68;4.50;;;;;;;22.92;54.52;102044.31;5033348;28;20402;-75
2022/10/28 09:08:43;;;;;;;11.75;5.65;;;;;;;23.11;53.70;102053.50;5033818;28;20413;-75
2022/10/28 09:11:37;;;;;;;9.40;4.70;;;;;;;23.29;54.38;102052.31;5033746;28;20046;-75
2022/10/28 09:14:25;;;;;;;10.73;5.22;;;;;;;23.29;53.85;102046.75;5033929;28;20068;-76
2022/10/28 09:17:17;;;;;;;9.65;5.57;;;;;;;23.48;53.43;102048.34;5034118;28;20053;-75
2022/10/28 09:19:50;;;;;;;12.13;5.00;;;;;;;23.51;53.13;102050.47;5033193;28;20049;-75
2022/10/28 09:22:32;;;;;;;11.70;5.47;;;;;;;23.31;53.16;102054.81;5032951;28;20053;-75
2022/10/28 09:25:28;;;;;;;8.43;5.38;;;;;;;23.33;54.40;102055.31;5033266;28;20288;-75
2022/10/28 09:28:17;;;;;;;10.20;5.60;;;;;;;23.68;52.65;102051.56;5033630;28;20476;-75
2022/10/28 09:31:00;;;;;;;8.88;4.80;;;;;;;23.83;52.25;102053.00;5033833;28;20045;-75
2022/10/28 09:33:39;;;;;;;11.52;5.80;;;;;;;24.04;52.23;102058.63;5020039;28;20045;-75
2022/10/28 09:36:15;;;;;;;9.70;5.60;;;;;;;24.30;51.90;102054.91;5032706;28;20062;-74
2022/10/28 09:38:49;;;;;;;8.20;5.90;;;;;;;24.02;51.91;102052.56;5033718;28;20388;-74
2022/10/28 09:41:22;;;;;;;12.05;6.40;;;;;;;24.05;51.86;102043.50;5033394;28;20049;-74
2022/10/28 09:43:53;;;;;;;11.25;7.30;;;;;;;24.51;51.00;102045.72;5015494;28;20050;-75
2022/10/28 09:46:25;;;;;;;15.02;7.68;;;;;;;24.58;52.30;102047.97;5032733;28;20054;-74
2022/10/28 09:48:58;;;;;;;20.83;6.60;;;;;;;24.79;50.57;102045.97;5033420;28;20041;-74
2022/10/28 09:51:46;;;;;;;14.95;6.80;;;;;;;24.64;49.67;102053.00;5032502;28;20046;-74
2022/10/28 09:54:33;;;;;;;13.43;7.50;;;;;;;24.67;50.95;102052.34;5033170;28;20049;-75
2022/10/28 09:57:02;;;;;;;14.65;6.70;;;;;;;24.67;50.83;102046.75;5032245;28;20060;-75
2022/10/28 09:59:31;;;;;;;14.75;7.82;;;;;;;24.75;50.58;102047.00;5032608;28;20401;-75
2022/10/28 10:01:59;;;;;;;15.07;7.38;;;;;;;25.05;49.91;102044.94;5033198;28;20048;-74
2022/10/28 10:04:30;;;;;;;16.00;6.65;;;;;;;25.31;49.16;102045.84;5031450;28;20057;-75
2022/10/28 10:07:04;;;;;;;12.82;6.97;;;;;;;25.14;48.76;102046.84;5033095;28;20629;-74
2022/10/28 10:09:34;;;;;;;12.88;6.82;;;;;;;25.13;48.53;102039.59;5032328;28;20049;-75
2022/10/28 10:12:08;;;;;;;13.13;6.68;;;;;;;24.71;49.52;102038.47;5032536;28;20049;-74
2022/10/28 10:14:45;;;;;;;12.25;6.55;;;;;;;25.21;49.49;102039.50;5032558;28;20049;-75
2022/10/28 10:17:26;;;;;;;9.57;5.70;;;;;;;25.12;48.81;102043.56;5032183;28;20068;-77
2022/10/28 10:20:10;;;;;;;22.88;6.82;;;;;;;24.88;50.10;102039.50;5032915;28;20026;-77
2022/10/28 10:22:41;;;;;;;11.40;6.53;;;;;;;24.59;49.61;102039.25;5031756;28;20057;-76
2022/10/28 10:25:18;;;;;;;12.35;5.95;;;;;;;24.87;48.94;102029.50;5032801;28;20064;-76
2022/10/28 10:27:57;;;;;;;14.00;7.22;;;;;;;25.16;48.62;102027.72;5023509;28;20064;-76
2022/10/28 10:30:33;;;;;;;11.65;6.30;;;;;;;25.35;47.89;102015.97;5031948;28;20042;-76
2022/10/28 10:33:02;;;;;;;10.85;6.82;;;;;;;25.56;47.20;102018.69;5032290;28;20054;-76
2022/10/28 10:35:34;;;;;;;14.40;6.68;;;;;;;25.26;47.34;102021.66;5032093;28;20052;-75
2022/10/28 10:38:05;;;;;;;13.90;7.28;;;;;;;25.39;46.62;102018.88;5031842;28;20053;-75
2022/10/28 10:40:49;;;;;;;14.32;6.90;;;;;;;25.54;46.46;102015.44;5031847;28;20112;-75
2022/10/28 10:43:17;;;;;;;13.38;6.82;;;;;;;25.71;46.40;102020.00;5032481;28;20488;-75
2022/10/28 10:46:11;;;;;;;11.55;6.28;;;;;;;25.85;45.96;102016.03;5032298;28;20414;-75
2022/10/28 10:48:40;;;;;;;13.65;6.82;;;;;;;25.50;46.29;102012.50;5013865;28;20053;-74
2022/10/28 10:51:15;;;;;;;13.48;6.25;;;;;;;25.80;45.56;102011.47;5039340;28;20481;-75
2022/10/28 10:53:47;;;;;;;;;;;;;;;25.65;46.01;102009.38;5026685;28;20054;-75
2022/10/28 10:56:24;;;;;;;11.20;6.05;;;;;;;25.81;45.00;102012.28;5031319;28;19929;-74
2022/10/28 10:58:55;;;;;;;11.05;6.90;;;;;;;25.33;45.52;102009.91;5033297;28;20057;-75
2022/10/28 11:01:38;;;;;;;12.63;5.53;;;;;;;25.46;46.22;102000.34;5034130;28;20041;-75
2022/10/28 11:04:14;;;;;;;9.50;5.75;;;;;;;26.32;44.16;102006.28;5031867;28;20049;-75
2022/10/28 11:06:47;;;;;;;12.82;5.85;;;;;;;26.23;44.49;102000.81;5031096;28;20488;-75
2022/10/28 11:09:37;;;;;;;10.02;5.82;;;;;;;25.71;43.71;101991.97;5014391;28;20056;-75
2022/10/28 11:12:26;;;;;;;10.00;5.35;;;;;;;25.61;43.67;101984.84;5032305;28;20393;-75
2022/10/28 11:15:00;;;;;;;13.45;6.10;;;;;;;26.22;43.86;101990.75;5031127;28;20060;-75
2022/10/28 11:17:30;;;;;;;;;;;;;;;26.54;43.04;101988.09;5031525;28;20064;-75
2022/10/28 11:20:24;;;;;;;9.07;5.10;;;;;;;26.80;42.01;101983.19;5031441;28;19929;-76
2022/10/28 11:23:33;;;;;;;9.50;5.60;;;;;;;26.88;42.91;101975.78;5031787;28;20304;-74
2022/10/28 11:26:07;;;;;;;7.80;4.43;;;;;;;26.37;41.27;101968.75;5031162;28;20045;-75
2022/10/28 11:28:56;;;;;;;7.22;5.00;;;;;;;25.99;43.16;101974.44;5030951;28;20393;-74
2022/10/28 11:31:39;;;;;;;13.68;5.25;;;;;;;26.51;43.09;101971.97;5031106;28;20056;-74
2022/10/28 11:34:29;;;;;;;11.32;5.40;;;;;;;26.66;41.06;101963.97;5030850;28;20465;-75
2022/10/28 11:37:08;;;;;;;7.60;4.35;;;;;;;26.25;41.98;101962.00;5031873;28;20057;-75
2022/10/28 11:40:14;;;;;;;9.25;5.43;;;;;;;26.01;42.58;101960.06;5030711;28;20057;-75
2022/10/28 11:43:00;;;;;;;6.32;4.78;;;;;;;26.00;44.43;101956.41;5030669;28;20045;-75
2022/10/28 11:45:37;;;;;;;5.05;4.32;;;;;;;25.84;43.00;101955.50;5030299;28;20056;-73
2022/10/28 11:48:19;;;;;;;10.15;4.95;;;;;;;25.59;42.06;101949.91;5030784;28;20058;-73
2022/10/28 11:51:11;;;;;;;8.73;4.63;;;;;;;25.85;43.22;101951.56;5029740;28;20045;-73
2022/10/28 11:54:01;;;;;;;9.60;5.35;;;;;;;26.10;43.45;101937.47;5030557;28;20052;-73
2022/10/28 11:56:44;;;;;;;7.68;5.07;;;;;;;25.87;43.40;101938.81;5030273;28;20057;-73